Condicions actuals
Partly Cloudy
Conditions



Pressió:
1015.92 (hPa) - 30 (inHG)
Visibilitat:

10.0 (km) - 6.2 (miles)
Base de Núvols

427 (Mts) - 1400 (Feets)
   Temperatura
11  °C
Temperatura
9  °C
P. ros.
88  %
 Humitat
   Velocitat del Vent
19  km/h
10  kts
12  mph
5.4  m/s
   Vent Direcció
N
45°
E
90°
135°
S
180°
225°
O
270°
315°
 50°

Nord Est
   Airport Data
LEBL
Barcelona International Airport
Metar :LEBL 220000Z 05010KT 9999 FEW014 SCT016 BKN022 11/09 Q1016 NOSIG
Thu 22nd April 02:00 am
   Raw Metar Info
Raw METAR is the most common format in the world for the transmission of observational weather data. It is highly standardized through the International Civil Aviation Organization (ICAO), which allows it to be understood throughout most of the world.
   API Info
Data Provided by
https://www.checkwx.com/weather/LEBL

Aviation Weather providing METAR, TAF, AIRMET, SIGMET and OUTLOOK Weather Reports
   © Info
CSS/SVG/PHP scripts were developed by weather34.com for use in the weather34 template © 2015-2021

Guide Info provided by Metar-Wikipedia